Time;durP1;ratioP1;P1;durP2;ratioP2;P2;SDS_P1;SDS_P2;PMS_P1;PMS_P2;Temp;Humidity;BMP_temperature;BMP_pressure;BME280_temperature;BME280_humidity;BME280_pressure;Samples;Min_cycle;Max_cycle;Signal;HPM_P1;HPM_P2
2021/01/29 00:00:09;;;;;;;36.77;16.77;;;;;;;-1.23;90.00;98914.14;1782221;80;20999;-33
2021/01/29 00:02:38;;;;;;;52.05;17.27;;;;;;;-1.27;89.87;98913.70;1771530;80;20901;-32
2021/01/29 00:05:08;;;;;;;38.65;15.90;;;;;;;-1.27;89.93;98916.66;1768508;81;21039;-34
2021/01/29 00:07:37;;;;;;;32.33;13.48;;;;;;;-1.27;90.11;98918.78;1768663;80;21486;-34
2021/01/29 00:10:06;;;;;;;31.62;13.48;;;;;;;-1.31;90.22;98919.62;1768570;81;21195;-34
2021/01/29 00:12:34;;;;;;;28.52;12.68;;;;;;;-1.34;90.29;98927.22;1768227;79;20940;-34
2021/01/29 00:15:06;;;;;;;20.25;10.45;;;;;;;-1.36;90.37;98926.37;1767976;80;21023;-34
2021/01/29 00:17:34;;;;;;;18.23;11.12;;;;;;;-1.40;90.50;98934.78;1767993;80;20975;-34
2021/01/29 00:20:06;;;;;;;12.28;9.03;;;;;;;-1.38;90.58;98934.40;1768048;81;20909;-34
2021/01/29 00:22:34;;;;;;;12.20;8.10;;;;;;;-1.38;90.70;98934.40;1768122;80;21096;-33
2021/01/29 00:25:07;;;;;;;10.85;7.53;;;;;;;-1.35;90.65;98935.25;1767950;80;21178;-32
2021/01/29 00:27:37;;;;;;;11.97;6.50;;;;;;;-1.37;90.68;98939.91;1767958;81;20992;-33
2021/01/29 00:30:06;;;;;;;11.93;6.42;;;;;;;-1.37;90.75;98938.63;1767984;80;20912;-33
2021/01/29 00:32:34;;;;;;;11.90;5.58;;;;;;;-1.38;91.01;98938.20;1768045;81;20916;-33
2021/01/29 00:35:05;;;;;;;15.85;4.67;;;;;;;-1.35;90.98;98942.86;1767985;79;22248;-33
2021/01/29 00:37:33;;;;;;;8.58;4.00;;;;;;;-1.34;90.81;98931.03;1768001;81;21427;-32
2021/01/29 00:40:01;;;;;;;5.55;3.95;;;;;;;-1.33;90.69;98941.61;1768013;81;20921;-33
2021/01/29 00:42:29;;;;;;;10.68;3.67;;;;;;;-1.33;90.67;98945.42;1767961;80;20920;-33
2021/01/29 00:44:57;;;;;;;7.28;3.40;;;;;;;-1.29;90.42;98950.94;1768012;80;20968;-33
2021/01/29 00:47:25;;;;;;;10.50;3.67;;;;;;;-1.28;90.65;98944.16;1767951;81;21195;-33
2021/01/29 00:49:53;;;;;;;5.58;3.15;;;;;;;-1.30;90.66;98934.02;1767885;81;21038;-33
2021/01/29 00:52:21;;;;;;;6.40;3.30;;;;;;;-1.30;90.53;98946.27;1768014;81;20968;-33
2021/01/29 00:54:49;;;;;;;3.90;2.90;;;;;;;-1.30;90.61;98947.54;1768001;81;20935;-33
2021/01/29 00:57:18;;;;;;;5.58;3.00;;;;;;;-1.27;90.42;98944.18;1768123;80;20869;-34
2021/01/29 00:59:48;;;;;;;9.25;3.75;;;;;;;-1.27;90.26;98940.78;1766724;81;21387;-33
2021/01/29 01:02:18;;;;;;;21.95;3.62;;;;;;;-1.25;89.97;98947.58;1774420;79;21414;-34
2021/01/29 01:04:46;;;;;;;3.95;3.02;;;;;;;-1.25;89.84;98951.82;1782510;80;20990;-33
2021/01/29 01:07:14;;;;;;;4.58;2.90;;;;;;;-1.26;89.35;98954.77;1782339;80;20999;-34
2021/01/29 01:09:46;;;;;;;5.55;2.85;;;;;;;-1.25;89.27;98953.92;1782523;80;20982;-34
2021/01/29 01:12:17;;;;;;;3.10;2.47;;;;;;;-1.23;88.99;98950.97;1782270;80;21382;-33
2021/01/29 01:14:50;;;;;;;3.05;2.80;;;;;;;-1.19;88.67;98948.87;1778913;80;20942;-33
2021/01/29 01:17:23;;;;;;;2.87;2.58;;;;;;;-1.20;88.66;98963.68;1758551;80;21034;-33
2021/01/29 01:19:53;;;;;;;2.30;2.10;;;;;;;-1.19;88.36;98971.73;1777024;80;21046;-33
2021/01/29 01:22:21;;;;;;;2.00;1.80;;;;;;;-1.14;88.08;98964.55;1782538;80;20935;-34
2021/01/29 01:24:57;;;;;;;1.90;1.80;;;;;;;-1.11;87.59;98969.23;1766325;80;21608;-34
2021/01/29 01:27:25;;;;;;;2.00;1.90;;;;;;;-1.12;87.41;98961.62;1753995;80;21214;-33
2021/01/29 01:30:16;;;;;;;17.60;1.82;;;;;;;-1.11;87.49;98964.16;1782490;80;21363;-33
2021/01/29 01:32:44;;;;;;;8.03;2.17;;;;;;;-1.08;87.48;98967.98;1782505;80;20986;-33
2021/01/29 01:35:16;;;;;;;5.72;1.62;;;;;;;-1.11;87.50;98974.31;1756985;80;20947;-34
2021/01/29 01:37:44;;;;;;;1.15;1.15;;;;;;;-1.11;87.55;98967.97;1782496;79;22226;-33
2021/01/29 01:40:24;;;;;;;1.65;1.55;;;;;;;-1.10;87.52;98973.47;1781893;80;21015;-33
2021/01/29 01:42:53;;;;;;;14.38;1.60;;;;;;;-1.07;87.52;98986.63;1782175;80;20998;-32
2021/01/29 01:45:32;;;;;;;5.58;1.32;;;;;;;-1.13;86.83;98987.43;1782400;80;20876;-32
2021/01/29 01:48:08;;;;;;;10.18;1.40;;;;;;;-1.24;86.75;98982.28;1782424;80;20911;-33
2021/01/29 01:50:47;;;;;;;7.35;1.42;;;;;;;-1.28;86.60;98993.67;1754400;80;21366;-33
2021/01/29 01:53:33;;;;;;;12.25;1.25;;;;;;;-1.37;87.21;98989.41;1782449;80;21493;-34
2021/01/29 01:56:25;;;;;;;16.32;1.85;;;;;;;-1.44;87.55;98991.05;1782549;80;21399;-34
2021/01/29 01:59:06;;;;;;;1.72;0.95;;;;;;;-1.48;87.93;98999.05;1752688;80;21026;-32
2021/01/29 02:01:42;;;;;;;3.10;1.10;;;;;;;-1.52;88.39;99004.09;1777861;80;21038;-33
2021/01/29 02:04:12;;;;;;;4.70;1.12;;;;;;;-1.50;87.85;98992.28;1751232;81;21415;-34
2021/01/29 02:07:28;;;;;;;11.12;1.20;;;;;;;-1.52;87.13;99008.77;1767866;81;20940;-33
2021/01/29 02:10:14;;;;;;;29.75;2.10;;;;;;;-1.48;86.41;99010.48;1746857;82;21137;-33
2021/01/29 02:12:45;;;;;;;34.15;2.80;;;;;;;-1.55;86.26;99025.64;1761646;80;21055;-33
2021/01/29 02:15:16;;;;;;;30.35;2.85;;;;;;;-1.57;86.62;99016.77;1767072;81;20980;-34
2021/01/29 02:18:28;;;;;;;18.10;2.00;;;;;;;-1.62;86.80;99021.80;1768008;81;22218;-33
2021/01/29 02:22:01;;;;;;;15.63;1.30;;;;;;;-1.64;86.42;99015.86;1753701;81;21054;-33
2021/01/29 02:25:03;;;;;;;17.43;2.00;;;;;;;-1.70;85.76;99037.79;1764676;81;20943;-34
2021/01/29 02:27:55;;;;;;;12.28;1.50;;;;;;;-1.79;85.73;99045.77;1766953;81;21047;-34
2021/01/29 02:30:39;;;;;;;6.78;1.80;;;;;;;-1.85;85.92;99055.86;1763265;81;21019;-33
2021/01/29 02:33:37;;;;;;;41.68;2.50;;;;;;;-1.88;86.17;99056.67;1722622;81;21414;-33
2021/01/29 02:36:37;;;;;;;16.77;1.80;;;;;;;-1.90;86.30;99062.55;1760183;80;21010;-33
2021/01/29 02:39:20;;;;;;;25.02;2.17;;;;;;;-1.91;86.39;99062.13;1767817;80;21062;-33
2021/01/29 02:42:01;;;;;;;5.78;1.62;;;;;;;-1.94;86.46;99074.77;1745233;81;20893;-33
2021/01/29 02:44:57;;;;;;;9.50;1.70;;;;;;;-1.94;86.33;99079.84;1758645;81;20996;-34
2021/01/29 02:47:58;;;;;;;32.93;2.77;;;;;;;-1.97;86.53;99087.43;1768007;80;21353;-33
2021/01/29 02:50:48;;;;;;;4.00;1.98;;;;;;;-2.10;87.37;99087.31;1751351;81;20987;-34
2021/01/29 02:53:38;;;;;;;;;;;;;;;-2.09;87.37;99090.28;1770495;81;20972;-33
2021/01/29 02:56:37;;;;;;;2.17;1.85;;;;;;;-2.11;87.27;99093.22;1767900;81;20206;-33
2021/01/29 02:59:38;;;;;;;3.70;1.72;;;;;;;-2.12;87.02;99095.33;1755667;81;20928;-34
2021/01/29 03:02:15;;;;;;;8.05;2.35;;;;;;;-2.19;87.41;99104.94;1764780;80;22335;-33
2021/01/29 03:05:04;;;;;;;3.65;2.15;;;;;;;-2.23;87.77;99103.20;1743299;81;20940;-33
2021/01/29 03:07:49;;;;;;;2.62;1.98;;;;;;;-2.25;87.69;99118.42;1767876;80;21397;-34
2021/01/29 03:11:14;;;;;;;1.95;1.80;;;;;;;-2.26;87.66;99114.58;1767864;81;21011;-33
2021/01/29 03:14:20;;;;;;;4.03;2.00;;;;;;;-2.33;87.94;99128.45;1767801;81;20963;-33
2021/01/29 03:17:13;;;;;;;2.25;1.82;;;;;;;-2.35;87.61;99131.39;1767773;81;21357;-34
2021/01/29 03:19:54;;;;;;;4.72;2.10;;;;;;;-2.41;87.48;99135.52;1752442;81;20955;-34
2021/01/29 03:23:07;;;;;;;7.22;2.30;;;;;;;-2.44;87.31;99141.39;1767759;81;20912;-34
2021/01/29 03:26:03;;;;;;;6.37;2.08;;;;;;;-2.47;87.26;99143.48;1746803;82;21541;-32
2021/01/29 03:28:54;;;;;;;4.85;1.98;;;;;;;-2.51;86.99;99149.35;1680321;85;21010;-33
2021/01/29 03:34:36;;;;;;;4.42;2.17;;;;;;;-2.47;85.85;99158.70;1776956;79;22696;-33
2021/01/29 03:37:29;;;;;;;5.12;2.55;;;;;;;-2.53;85.95;99161.13;1749860;82;20967;-34
2021/01/29 03:40:16;;;;;;;2.72;2.00;;;;;;;-2.53;85.90;99167.89;1749712;82;21392;-34
2021/01/29 03:43:32;;;;;;;4.55;2.33;;;;;;;-2.51;85.91;99161.16;1713861;82;21056;-33
2021/01/29 03:46:18;;;;;;;2.50;2.20;;;;;;;-2.50;86.11;99163.73;1853583;77;22584;-33
2021/01/29 03:49:30;;;;;;;5.22;2.15;;;;;;;-2.53;86.06;99176.33;1819443;78;20918;-34
2021/01/29 03:52:40;;;;;;;2.85;2.10;;;;;;;-2.54;85.96;99172.52;1825637;78;22242;-31
2021/01/29 03:55:47;;;;;;;2.67;2.27;;;;;;;-2.53;85.85;99175.49;1825631;78;20907;-32
2021/01/29 03:58:50;;;;;;;3.05;2.15;;;;;;;-2.55;85.97;99183.48;1825800;78;21018;-33
2021/01/29 04:02:00;;;;;;;4.05;2.65;;;;;;;-2.58;86.10;99194.42;1775286;78;20930;-34
2021/01/29 04:05:08;;;;;;;2.85;2.60;;;;;;;-2.58;85.98;99197.39;1825617;78;20919;-34
2021/01/29 04:08:01;;;;;;;11.63;2.37;;;;;;;-2.66;85.91;99201.91;1717572;82;21212;-32
2021/01/29 04:10:50;;;;;;;3.85;2.77;;;;;;;-2.69;85.77;99198.06;1717613;83;21032;-33
2021/01/29 04:13:44;;;;;;;2.25;2.10;;;;;;;-2.70;85.81;99205.66;1810557;77;22720;-33
2021/01/29 04:16:21;;;;;;;2.65;2.02;;;;;;;-2.76;85.19;99206.00;1782398;80;20959;-33
2021/01/29 04:18:51;;;;;;;2.58;2.37;;;;;;;-2.78;84.77;99208.06;1782387;79;21479;-32
2021/01/29 04:21:23;;;;;;;2.98;2.17;;;;;;;-2.83;84.70;99210.52;1782291;80;21018;-33
2021/01/29 04:24:02;;;;;;;2.37;1.80;;;;;;;-2.86;84.89;99216.80;1747961;80;20935;-34
2021/01/29 04:26:37;;;;;;;4.00;2.00;;;;;;;-2.83;84.44;99218.55;1782317;80;20971;-34
2021/01/29 04:29:11;;;;;;;5.15;1.67;;;;;;;-2.89;84.51;99220.16;1782461;80;20904;-33
2021/01/29 04:31:39;;;;;;;2.25;2.05;;;;;;;-2.95;85.03;99228.89;1751986;80;21299;-31
2021/01/29 04:34:12;;;;;;;1.72;1.62;;;;;;;-3.01;85.28;99232.59;1782263;80;20892;-36
2021/01/29 04:36:41;;;;;;;2.15;1.82;;;;;;;-3.00;85.14;99235.57;1782339;80;21616;-34
2021/01/29 04:39:16;;;;;;;1.75;1.65;;;;;;;-3.06;85.16;99238.00;1751997;80;21018;-34
2021/01/29 04:42:17;;;;;;;3.08;1.77;;;;;;;-3.06;85.19;99238.00;1782494;80;20975;-33
2021/01/29 04:45:27;;;;;;;3.95;2.02;;;;;;;-3.13;85.17;99238.30;1782331;80;21625;-32
2021/01/29 04:48:10;;;;;;;3.20;1.60;;;;;;;-3.16;85.59;99250.91;1781693;80;21117;-34
2021/01/29 04:51:08;;;;;;;1.80;1.70;;;;;;;-3.16;85.91;99249.64;1782270;80;20919;-33
2021/01/29 04:54:32;;;;;;;5.95;1.70;;;;;;;-3.19;86.46;99260.98;1782223;80;20899;-34
2021/01/29 04:57:38;;;;;;;1.87;1.72;;;;;;;-3.20;85.97;99258.02;1782210;80;21014;-34
2021/01/29 05:00:49;;;;;;;4.72;2.58;;;;;;;-3.24;86.19;99258.79;1776296;80;22167;-33
2021/01/29 05:03:42;;;;;;;9.45;1.98;;;;;;;-3.28;86.48;99267.99;1756929;80;20896;-32
2021/01/29 05:07:22;;;;;;;4.15;2.17;;;;;;;-3.28;86.56;99278.13;1782289;80;20915;-33
2021/01/29 05:10:38;;;;;;;3.95;2.58;;;;;;;-3.33;87.33;99267.06;1778135;80;21038;-34
2021/01/29 05:13:33;;;;;;;;;;;;;;;-3.35;87.48;99283.90;1778065;80;21106;-33
2021/01/29 05:17:06;;;;;;;5.00;3.12;;;;;;;-3.33;87.79;99283.52;1812818;77;22444;-33
2021/01/29 05:20:17;;;;;;;9.55;3.05;;;;;;;-3.44;88.46;99287.09;1784299;80;20994;-35
2021/01/29 05:22:57;;;;;;;6.35;4.30;;;;;;;-3.43;88.75;99293.00;1784211;80;21208;-33
2021/01/29 05:25:40;;;;;;;8.45;3.05;;;;;;;-3.42;88.55;99290.91;1784319;80;20987;-33
2021/01/29 05:28:25;;;;;;;9.18;3.27;;;;;;;-3.39;88.39;99292.27;1784292;80;20955;-34
2021/01/29 05:31:17;;;;;;;3.60;3.30;;;;;;;-3.38;88.65;99301.56;1784298;80;21002;-33
2021/01/29 05:34:03;;;;;;;5.28;3.50;;;;;;;-3.41;89.16;99306.14;1784252;80;20990;-32
2021/01/29 05:37:09;;;;;;;;;;;;;;;-3.38;88.97;99307.45;1786848;80;21210;-33
2021/01/29 05:40:01;;;;;;;4.25;3.72;;;;;;;-3.37;88.62;99305.80;1783187;80;20123;-32
2021/01/29 05:42:53;;;;;;;7.15;4.10;;;;;;;-3.36;88.61;99310.03;1784349;79;20875;-33
2021/01/29 05:46:11;;;;;;;4.90;3.65;;;;;;;-3.32;88.24;99313.06;1769941;80;20984;-34
2021/01/29 05:49:11;;;;;;;6.17;4.20;;;;;;;-3.36;88.47;99304.97;1784359;80;21517;-32
2021/01/29 05:52:28;;;;;;;10.48;5.10;;;;;;;-3.34;88.65;99309.65;1784156;80;21237;-32
2021/01/29 05:55:39;;;;;;;9.55;5.28;;;;;;;-3.32;89.04;99316.86;1784335;80;21041;-34
2021/01/29 05:58:25;;;;;;;7.08;4.92;;;;;;;-3.34;89.65;99319.34;1784185;80;21415;-32
2021/01/29 06:01:30;;;;;;;6.85;5.20;;;;;;;-3.36;89.97;99325.22;1783226;80;21017;-32
2021/01/29 06:04:26;;;;;;;7.87;5.03;;;;;;;-3.30;90.02;99332.93;1784294;79;20915;-33
2021/01/29 06:07:31;;;;;;;7.35;5.10;;;;;;;-3.32;90.30;99327.82;1784302;80;21474;-33
2021/01/29 06:10:26;;;;;;;7.00;4.92;;;;;;;-3.32;90.43;99333.31;1784125;80;20939;-32
2021/01/29 06:13:12;;;;;;;13.43;6.00;;;;;;;-3.29;90.26;99328.31;1784152;80;20998;-34
2021/01/29 06:16:19;;;;;;;;;;;;;;;-3.30;90.50;99322.80;1793274;80;21046;-33
2021/01/29 06:19:11;;;;;;;7.55;4.62;;;;;;;-3.28;90.30;99330.02;1793562;80;20103;-32
2021/01/29 06:22:02;;;;;;;8.98;5.40;;;;;;;-3.28;90.33;99330.02;1779858;80;21389;-33
2021/01/29 06:24:57;;;;;;;6.00;4.50;;;;;;;-3.26;90.41;99332.16;1793637;80;20990;-33
2021/01/29 06:28:13;;;;;;;11.80;5.87;;;;;;;-3.26;90.29;99312.34;1793113;80;20930;-32
2021/01/29 06:30:52;;;;;;;7.75;5.87;;;;;;;-3.26;90.18;99338.48;1792866;80;21062;-33
2021/01/29 06:33:48;;;;;;;9.25;5.25;;;;;;;-3.24;89.72;99328.41;1793184;80;20967;-34
2021/01/29 06:36:50;;;;;;;6.50;5.15;;;;;;;-3.23;89.10;99325.05;1793130;80;21418;-34
2021/01/29 06:40:17;;;;;;;13.05;7.15;;;;;;;-3.24;88.30;99331.78;1793002;80;20950;-34
2021/01/29 06:43:31;;;;;;;10.82;5.35;;;;;;;-3.19;86.32;99349.17;1793126;80;20978;-33
2021/01/29 06:46:19;;;;;;;8.70;6.28;;;;;;;-3.12;84.61;99332.86;1727621;82;21591;-32
2021/01/29 06:49:32;;;;;;;18.17;7.78;;;;;;;-3.06;84.25;99332.97;1723972;83;20934;-33
2021/01/29 06:52:54;;;;;;;10.58;5.67;;;;;;;-2.98;82.58;99335.64;1773639;81;21366;-32
2021/01/29 06:55:29;;;;;;;12.98;5.65;;;;;;;-2.90;82.17;99323.97;1752501;81;21033;-33
2021/01/29 06:58:30;;;;;;;6.15;4.95;;;;;;;-2.94;81.28;99333.18;1755522;81;20938;-34
2021/01/29 07:01:27;;;;;;;9.55;5.42;;;;;;;-2.94;81.47;99336.98;1755435;81;20913;-34
2021/01/29 07:04:15;;;;;;;;;;;;;;;-2.94;81.51;99323.05;1776423;81;20979;-34
2021/01/29 07:07:06;;;;;;;13.15;6.87;;;;;;;-2.87;80.57;99339.64;1774004;81;22529;-32
2021/01/29 07:10:09;;;;;;;8.78;5.70;;;;;;;-2.92;80.67;99344.19;1755468;81;21013;-33
2021/01/29 07:13:17;;;;;;;9.73;5.42;;;;;;;-2.90;80.46;99348.90;1773985;81;20924;-33
2021/01/29 07:16:13;;;;;;;10.03;6.22;;;;;;;-2.91;80.52;99339.99;1772382;80;20944;-34
2021/01/29 07:19:20;;;;;;;8.65;5.75;;;;;;;-2.91;80.03;99342.09;1771659;81;21003;-32
2021/01/29 07:22:09;;;;;;;;;;;;;;;-2.93;79.82;99350.52;1774098;81;21372;-34
2021/01/29 07:25:06;;;;;;;6.03;5.37;;;;;;;-2.92;79.80;99364.88;1771559;80;21183;-32
2021/01/29 07:27:58;;;;;;;10.32;5.72;;;;;;;-2.94;79.01;99353.44;1771507;81;20963;-33
2021/01/29 07:30:47;;;;;;;12.10;6.28;;;;;;;-2.92;78.79;99363.61;1771434;81;21000;-33
2021/01/29 07:33:32;;;;;;;8.70;5.78;;;;;;;-2.88;78.47;99357.77;1771468;81;20990;-33
2021/01/29 07:36:32;;;;;;;9.63;6.05;;;;;;;-2.91;78.65;99369.95;1771454;81;21470;-33
2021/01/29 07:39:36;;;;;;;9.60;6.25;;;;;;;-2.86;77.66;99378.08;1771380;81;20932;-33
2021/01/29 07:42:21;;;;;;;8.75;6.03;;;;;;;-2.79;78.07;99373.56;1771412;81;20944;-33
2021/01/29 07:45:10;;;;;;;7.20;4.65;;;;;;;-2.80;77.47;99390.42;1771542;80;21141;-34
2021/01/29 07:48:23;;;;;;;10.18;6.22;;;;;;;-2.74;77.42;99383.36;1771449;81;20904;-34
2021/01/29 07:51:23;;;;;;;9.18;6.00;;;;;;;-2.71;77.55;99388.91;1771463;81;21130;-34
2021/01/29 07:53:59;;;;;;;9.60;6.20;;;;;;;-2.65;77.02;99395.35;1746665;81;20931;-34
2021/01/29 07:56:56;;;;;;;8.78;5.45;;;;;;;-2.62;76.75;99392.47;1771482;80;20884;-34
2021/01/29 07:59:33;;;;;;;;;;;;;;;-2.67;76.33;99397.01;1774030;81;21490;-33
2021/01/29 08:02:32;;;;;;;10.32;5.80;;;;;;;-2.58;76.20;99410.27;1771394;81;20135;-32
2021/01/29 08:05:12;;;;;;;8.10;5.55;;;;;;;-2.56;74.88;99404.81;1771576;81;22518;-33
2021/01/29 08:07:47;;;;;;;9.28;5.72;;;;;;;-2.63;75.28;99401.30;1771463;81;21085;-34
2021/01/29 08:10:28;;;;;;;13.58;6.30;;;;;;;-2.48;75.03;99395.25;1771461;81;20876;-34
2021/01/29 08:13:31;;;;;;;10.28;5.95;;;;;;;-2.36;74.90;99404.75;1771426;81;20884;-34
2021/01/29 08:16:39;;;;;;;8.73;6.20;;;;;;;-2.24;74.07;99401.57;1772790;80;20899;-34
2021/01/29 08:19:25;;;;;;;10.55;6.53;;;;;;;-2.31;74.61;99409.48;1773897;81;21188;-34
2021/01/29 08:22:27;;;;;;;8.58;5.80;;;;;;;-2.39;74.20;99423.72;1774120;81;21531;-34
2021/01/29 08:25:25;;;;;;;11.95;6.40;;;;;;;-2.49;74.31;99419.29;1773350;81;20979;-34
2021/01/29 08:28:18;;;;;;;12.47;6.58;;;;;;;-2.46;74.46;99416.80;1773843;81;21026;-33
2021/01/29 08:31:26;;;;;;;9.98;6.37;;;;;;;-2.37;74.91;99415.72;1773946;81;20908;-32
2021/01/29 08:34:35;;;;;;;9.88;6.12;;;;;;;-2.21;73.67;99419.38;1770648;81;21200;-32
2021/01/29 08:37:12;;;;;;;11.35;6.42;;;;;;;-2.24;72.77;99405.38;1773900;81;21130;-32
2021/01/29 08:39:49;;;;;;;9.65;5.90;;;;;;;-2.39;73.79;99423.72;1773850;79;21039;-33
2021/01/29 08:42:49;;;;;;;11.63;6.22;;;;;;;-2.36;73.75;99414.02;1773904;81;20911;-32
2021/01/29 08:45:50;;;;;;;7.87;6.12;;;;;;;-2.27;73.68;99404.06;1773866;81;20910;-34
2021/01/29 08:48:36;;;;;;;9.23;5.92;;;;;;;-2.26;72.85;99407.44;1756999;81;21355;-33
2021/01/29 08:51:30;;;;;;;8.30;5.40;;;;;;;-2.24;73.01;99396.90;1773921;81;21262;-34
2021/01/29 08:54:15;;;;;;;9.60;6.05;;;;;;;-2.17;72.95;99407.17;1773904;81;20916;-33
2021/01/29 08:57:22;;;;;;;11.48;6.50;;;;;;;-2.05;72.46;99393.84;1773933;81;21003;-33
2021/01/29 08:59:51;;;;;;;10.00;6.92;;;;;;;-1.94;71.70;99395.68;1773955;81;20904;-33
2021/01/29 09:02:44;;;;;;;13.90;8.00;;;;;;;-1.83;71.02;99401.79;1770578;81;21375;-34
2021/01/29 09:05:24;;;;;;;17.32;8.00;;;;;;;-1.74;71.22;99385.85;1890196;76;22615;-32
2021/01/29 09:07:58;;;;;;;12.50;7.33;;;;;;;-1.57;70.79;99350.95;1861155;77;21486;-34
2021/01/29 09:10:48;;;;;;;12.70;7.58;;;;;;;-1.49;70.68;99388.73;1861090;77;22269;-35
2021/01/29 09:13:19;;;;;;;11.43;7.30;;;;;;;-1.31;69.75;99384.31;1809845;77;20978;-33
2021/01/29 09:15:52;;;;;;;11.97;7.35;;;;;;;-1.23;69.92;99377.63;1861201;77;20875;-33
2021/01/29 09:18:52;;;;;;;11.48;7.00;;;;;;;-1.03;68.54;99363.88;1861157;77;21068;-33
2021/01/29 09:21:53;;;;;;;15.40;7.72;;;;;;;-1.00;67.49;99371.97;1828879;77;20926;-33
2021/01/29 09:24:35;;;;;;;15.03;7.35;;;;;;;-0.96;67.41;99367.79;1860984;77;21362;-33
2021/01/29 09:27:26;;;;;;;12.60;7.95;;;;;;;-0.89;67.63;99368.28;1860991;77;20966;-33
2021/01/29 09:29:57;;;;;;;12.73;7.37;;;;;;;-0.72;68.07;99378.62;1860976;77;20958;-33
2021/01/29 09:32:52;;;;;;;11.57;7.28;;;;;;;-0.50;68.13;99369.94;1861157;77;20970;-33
2021/01/29 09:35:49;;;;;;;12.28;7.03;;;;;;;-0.30;66.69;99365.89;1861068;77;20895;-33
2021/01/29 09:38:25;;;;;;;25.27;7.37;;;;;;;-0.14;66.20;99346.91;1861105;77;21184;-32
2021/01/29 09:41:16;;;;;;;23.60;7.55;;;;;;;-0.08;66.89;99337.20;1858716;77;21059;-33
2021/01/29 09:43:59;;;;;;;13.30;7.70;;;;;;;-0.02;67.34;99352.52;1861105;77;21505;-33
2021/01/29 09:46:39;;;;;;;10.25;6.45;;;;;;;-0.27;66.89;99352.32;1861024;77;20993;-34
2021/01/29 09:49:12;;;;;;;10.13;6.80;;;;;;;-0.61;66.66;99338.05;1861079;77;20863;-33
2021/01/29 09:52:11;;;;;;;16.07;6.42;;;;;;;-0.78;68.09;99347.63;1858282;77;21578;-34
2021/01/29 09:55:09;;;;;;;13.45;6.65;;;;;;;-0.88;68.58;99354.34;1861030;77;20919;-34
2021/01/29 09:58:04;;;;;;;10.95;7.05;;;;;;;-0.94;69.07;99354.68;1861022;77;20978;-32
2021/01/29 10:00:34;;;;;;;11.08;7.50;;;;;;;-1.03;69.25;99342.29;1860926;77;20997;-34
2021/01/29 10:03:22;;;;;;;11.90;6.95;;;;;;;-0.90;68.15;99338.63;1861113;77;21013;-35
2021/01/29 10:06:10;;;;;;;9.18;6.70;;;;;;;-0.85;68.45;99327.25;1861116;77;21362;-33
2021/01/29 10:08:50;;;;;;;9.15;6.55;;;;;;;-0.68;68.32;99333.33;1860966;77;20922;-33
2021/01/29 10:11:27;;;;;;;11.05;7.05;;;;;;;-0.54;67.24;99327.09;1861106;77;21284;-34
2021/01/29 10:14:01;;;;;;;9.60;5.95;;;;;;;-0.47;66.44;99313.62;1861000;77;20974;-35
2021/01/29 10:16:49;;;;;;;10.50;6.40;;;;;;;-0.44;65.26;99316.18;1860552;77;21433;-34
2021/01/29 10:19:29;;;;;;;10.28;6.50;;;;;;;-0.53;65.57;99330.06;1849852;77;21383;-33
2021/01/29 10:22:12;;;;;;;10.30;6.50;;;;;;;-0.73;66.02;99324.41;1860392;77;21354;-34
2021/01/29 10:25:05;;;;;;;12.68;6.40;;;;;;;-0.85;66.25;99305.21;1860400;77;21034;-34
2021/01/29 10:27:44;;;;;;;10.25;6.67;;;;;;;-0.99;66.45;99313.97;1860345;77;21495;-35
2021/01/29 10:30:46;;;;;;;8.70;6.40;;;;;;;-0.95;66.97;99311.89;1863253;76;27796;-34
2021/01/29 10:33:28;;;;;;;9.13;6.37;;;;;;;-0.95;68.45;99301.72;1847490;77;21661;-35
2021/01/29 10:36:05;;;;;;;13.58;7.30;;;;;;;-0.88;67.43;99311.13;1817380;77;21204;-35
2021/01/29 10:38:49;;;;;;;9.85;6.80;;;;;;;-0.87;67.77;99309.02;1847302;77;20973;-34
2021/01/29 10:41:25;;;;;;;13.28;8.13;;;;;;;-0.93;67.50;99313.19;1847491;77;21401;-35
2021/01/29 10:43:59;;;;;;;13.10;8.43;;;;;;;-1.03;68.56;99305.88;1847379;76;20965;-32
2021/01/29 10:47:17;;;;;;;15.43;8.18;;;;;;;-1.09;68.63;99295.67;1847391;77;20887;-34
2021/01/29 10:49:59;;;;;;;13.10;8.60;;;;;;;-1.21;69.34;99303.57;1847436;77;22599;-33
2021/01/29 10:52:44;;;;;;;18.82;8.48;;;;;;;-1.21;70.28;99281.98;1847335;77;20917;-34
2021/01/29 10:55:30;;;;;;;15.20;8.10;;;;;;;-1.17;70.34;99291.77;1844520;77;20958;-34
2021/01/29 10:58:19;;;;;;;24.77;9.00;;;;;;;-1.13;71.26;99271.91;1847270;77;20895;-34
2021/01/29 11:00:58;;;;;;;17.48;9.28;;;;;;;-1.05;70.92;99270.29;1847316;77;21025;-33
2021/01/29 11:04:05;;;;;;;15.85;9.90;;;;;;;-1.10;70.23;99279.99;1817086;77;22256;-33
2021/01/29 11:06:42;;;;;;;13.08;9.18;;;;;;;-1.19;70.71;99276.94;1847504;77;20953;-34
2021/01/29 11:09:23;;;;;;;19.95;10.72;;;;;;;-1.20;71.34;99276.06;1846072;77;20906;-33
2021/01/29 11:12:02;;;;;;;16.85;10.15;;;;;;;-1.08;71.01;99275.34;1847234;77;21378;-34
2021/01/29 11:14:40;;;;;;;19.87;10.00;;;;;;;-1.00;71.42;99284.31;1847466;77;20890;-34
2021/01/29 11:17:22;;;;;;;19.27;9.83;;;;;;;-0.95;71.49;99273.77;1847378;77;21406;-34
2021/01/29 11:19:52;;;;;;;21.42;9.43;;;;;;;-0.91;71.74;99274.23;1847209;77;20985;-34
2021/01/29 11:22:31;;;;;;;15.15;9.60;;;;;;;-0.92;71.50;99263.63;1817202;77;21417;-33
2021/01/29 11:25:30;;;;;;;13.88;9.48;;;;;;;-0.90;71.17;99263.66;1847199;77;20895;-34
2021/01/29 11:28:10;;;;;;;14.53;9.95;;;;;;;-0.94;71.16;99258.12;1847326;77;20898;-33
2021/01/29 11:31:10;;;;;;;15.63;9.95;;;;;;;-0.96;71.62;99250.91;1847042;77;21326;-34
2021/01/29 11:33:40;;;;;;;18.37;10.38;;;;;;;-1.06;72.01;99252.52;1847182;77;20958;-34
2021/01/29 11:36:19;;;;;;;25.15;10.45;;;;;;;-1.10;72.49;99243.16;1847368;77;20898;-35
2021/01/29 11:39:02;;;;;;;21.95;11.68;;;;;;;-1.09;72.66;99241.89;1847255;77;20910;-34
2021/01/29 11:41:38;;;;;;;18.77;11.10;;;;;;;-1.11;73.21;99235.11;1846777;76;20902;-34
2021/01/29 11:44:25;;;;;;;21.82;11.50;;;;;;;-1.14;73.07;99233.78;1846736;76;22186;-34
2021/01/29 11:47:10;;;;;;;16.62;10.53;;;;;;;-1.18;73.36;99231.66;1846590;77;20954;-34
2021/01/29 11:49:53;;;;;;;31.23;11.73;;;;;;;-1.20;72.64;99234.59;1778025;77;20927;-34
2021/01/29 11:52:35;;;;;;;21.73;11.45;;;;;;;-1.23;73.33;99230.33;1808065;77;20898;-34
2021/01/29 11:55:24;;;;;;;16.45;10.70;;;;;;;-1.18;72.64;99217.69;1846613;77;20965;-34
2021/01/29 11:58:11;;;;;;;20.60;11.12;;;;;;;-1.24;73.55;99221.00;1846602;77;22219;-33
2021/01/29 12:01:10;;;;;;;20.70;11.53;;;;;;;-1.23;73.46;99220.60;1846872;77;21041;-34
2021/01/29 12:04:05;;;;;;;17.30;11.25;;;;;;;-1.22;73.48;99220.59;1841567;77;20910;-34
2021/01/29 12:06:47;;;;;;;20.88;10.82;;;;;;;-1.20;73.69;99226.98;1846658;77;20997;-32
2021/01/29 12:09:40;;;;;;;12.63;9.65;;;;;;;-1.17;73.33;99223.19;1846660;77;20970;-33
2021/01/29 12:12:25;;;;;;;19.50;11.28;;;;;;;-1.12;73.45;99223.25;1846682;76;22321;-33
2021/01/29 12:15:14;;;;;;;15.38;10.55;;;;;;;-1.12;73.55;99225.78;1816413;77;20918;-34
2021/01/29 12:17:58;;;;;;;19.57;11.33;;;;;;;-1.09;73.10;99216.92;1846648;77;20946;-34
2021/01/29 12:20:35;;;;;;;14.40;10.25;;;;;;;-1.06;72.66;99211.43;1846669;77;20894;-33
2021/01/29 12:23:40;;;;;;;19.95;10.75;;;;;;;-1.08;72.12;99200.41;1846749;77;20977;-34
2021/01/29 12:26:20;;;;;;;18.30;10.88;;;;;;;-1.07;70.95;99196.19;1845536;77;21200;-33
2021/01/29 12:29:22;;;;;;;14.13;10.13;;;;;;;-1.04;70.52;99202.56;1842613;77;21413;-33
2021/01/29 12:31:56;;;;;;;17.10;10.32;;;;;;;-1.04;70.46;99207.64;1846620;77;20878;-33
2021/01/29 12:34:40;;;;;;;17.55;10.65;;;;;;;-1.05;69.77;99207.22;1846749;76;20926;-34
2021/01/29 12:37:24;;;;;;;15.35;10.08;;;;;;;-1.05;68.90;99196.62;1816986;77;21428;-32
2021/01/29 12:40:00;;;;;;;18.40;9.93;;;;;;;-1.05;69.07;99195.78;1846934;77;21257;-33
2021/01/29 12:42:49;;;;;;;14.05;9.28;;;;;;;-1.05;69.12;99194.08;1846007;77;20942;-33
2021/01/29 12:45:32;;;;;;;19.15;10.05;;;;;;;-1.04;68.97;99185.61;1846698;77;20981;-32
2021/01/29 12:48:32;;;;;;;19.25;10.18;;;;;;;-1.05;68.54;99183.91;1836886;77;20906;-32
2021/01/29 12:51:09;;;;;;;14.98;9.13;;;;;;;-1.05;68.22;99179.27;1846620;77;20894;-33
2021/01/29 12:53:49;;;;;;;16.35;9.68;;;;;;;-1.07;67.06;99184.33;1845165;77;21446;-33
2021/01/29 12:56:34;;;;;;;17.80;9.05;;;;;;;-1.08;67.30;99181.35;1846715;77;21394;-32
2021/01/29 12:59:03;;;;;;;11.55;8.78;;;;;;;-1.11;66.38;99177.95;1820570;77;20934;-32
2021/01/29 13:01:40;;;;;;;15.83;9.98;;;;;;;-1.13;66.62;99159.31;1846552;77;21020;-32
2021/01/29 13:04:41;;;;;;;16.00;9.08;;;;;;;-1.12;65.90;99166.93;1845423;77;20894;-33
2021/01/29 13:07:27;;;;;;;12.10;8.83;;;;;;;-1.16;66.21;99166.04;1846684;77;21062;-34